Martha, Oklahoma
Current Conditions -  °F | °C
As of 6:55 AM on Friday 19 Dec 2014 (Local Time) from KAXS Reporting Station
Light Rain Light Rain  
Wind Chill: 35°   Ceiling: 700
Heat Index: 41°   Visibility: 5mi
Dew Point: 37°   Wind: 8mph
Humidity: 87%   Direction: 50°NE
Pressure: 30.22"   Gusts: NA
Location:  34.73°N, 99.39°W
Report Text: KAXS 191255Z AUTO 05007KT 5SM -RA OVC007 05/03 A3022 RMK AO2 T00480028
Loading
Personal Weather Stations






























Interactive Weather Map New forecast layout! Learn more

10-Day Weather Forecast

Advertisements
Track Severe Weather on mobile